DLH9EE EDDF-LIMC
Flight info
| Callsign | DLH9EE |
|---|---|
| Flight time | 0h 55m |
| Altitude | 33000 |
| Route | ANEKI6E ANEKI Y163 NATOR DCT DITON DCT BASGO Z424 RIXUV |
| Aircraft | A321/M-SDE2E3FGIJ1LORWXYZ/HB1 |
Departure
| Time | 2026-05-08 06:39 |
|---|---|
| Airport | Frankfurt Main Airport (EDDF) |
Arrival
| Time | 2026-05-08 07:35 |
|---|---|
| Airport | Milan Malpensa International Airport (LIMC) |
| Time | Latitude | Longitude | Altitude | Speed | Heading |
|---|---|---|---|---|---|
| 2026-05-08 06:10 | 50.04418 | 8.56275 | 358 ft | 0 kts | 162° |
| 2026-05-08 06:28 | 50.04420 | 8.56274 | 356 ft | 2 kts | 162° |
| 2026-05-08 06:28 | 50.04444 | 8.56261 | 363 ft | 4 kts | 162° |
| 2026-05-08 06:28 | 50.04466 | 8.56252 | 363 ft | 4 kts | 171° |
| 2026-05-08 06:29 | 50.04487 | 8.56255 | 362 ft | 4 kts | 240° |
| 2026-05-08 06:29 | 50.04495 | 8.56292 | 363 ft | 3 kts | 250° |
| 2026-05-08 06:29 | 50.04504 | 8.56329 | 363 ft | 4 kts | 250° |
| 2026-05-08 06:29 | 50.04513 | 8.56369 | 363 ft | 4 kts | 250° |
| 2026-05-08 06:30 | 50.04515 | 8.56379 | 360 ft | 0 kts | 250° |
| 2026-05-08 06:32 | 50.04513 | 8.56370 | 363 ft | 2 kts | 250° |
| 2026-05-08 06:32 | 50.04506 | 8.56341 | 362 ft | 4 kts | 250° |
| 2026-05-08 06:33 | 50.04495 | 8.56292 | 363 ft | 6 kts | 249° |
| 2026-05-08 06:33 | 50.04479 | 8.56226 | 362 ft | 7 kts | 249° |
| 2026-05-08 06:33 | 50.04459 | 8.56143 | 357 ft | 9 kts | 249° |
| 2026-05-08 06:33 | 50.04431 | 8.56050 | 359 ft | 10 kts | 229° |
| 2026-05-08 06:34 | 50.04363 | 8.56044 | 363 ft | 11 kts | 161° |
| 2026-05-08 06:34 | 50.04298 | 8.56070 | 357 ft | 10 kts | 185° |
| 2026-05-08 06:34 | 50.04250 | 8.55986 | 362 ft | 12 kts | 249° |
| 2026-05-08 06:34 | 50.04218 | 8.55853 | 359 ft | 14 kts | 250° |
| 2026-05-08 06:35 | 50.04181 | 8.55696 | 360 ft | 16 kts | 250° |
| 2026-05-08 06:35 | 50.04139 | 8.55519 | 359 ft | 18 kts | 249° |
| 2026-05-08 06:35 | 50.04094 | 8.55328 | 358 ft | 19 kts | 250° |
| 2026-05-08 06:35 | 50.04046 | 8.55133 | 357 ft | 18 kts | 250° |
| 2026-05-08 06:36 | 50.04020 | 8.55021 | 358 ft | 9 kts | 249° |
| 2026-05-08 06:36 | 50.03970 | 8.54973 | 356 ft | 10 kts | 173° |
| 2026-05-08 06:36 | 50.03892 | 8.55017 | 356 ft | 11 kts | 159° |
| 2026-05-08 06:36 | 50.03828 | 8.55000 | 353 ft | 11 kts | 226° |
| 2026-05-08 06:37 | 50.03792 | 8.54878 | 355 ft | 14 kts | 249° |
| 2026-05-08 06:37 | 50.03763 | 8.54758 | 354 ft | 9 kts | 244° |
| 2026-05-08 06:37 | 50.03697 | 8.54712 | 345 ft | 12 kts | 176° |
| 2026-05-08 06:37 | 50.03610 | 8.54757 | 350 ft | 11 kts | 160° |
| 2026-05-08 06:38 | 50.03583 | 8.54791 | 352 ft | 5 kts | 106° |
| 2026-05-08 06:38 | 50.03595 | 8.54855 | 349 ft | 11 kts | 70° |
| 2026-05-08 06:38 | 50.03704 | 8.55309 | 351 ft | 83 kts | 69° |
| 2026-05-08 06:38 | 50.03985 | 8.56485 | 360 ft | 147 kts | 69° |
| 2026-05-08 06:39 | 50.04353 | 8.58041 | 953 ft | 152 kts | 70° |
| 2026-05-08 06:39 | 50.04716 | 8.59587 | 1736 ft | 155 kts | 70° |
| 2026-05-08 06:39 | 50.04899 | 8.61327 | 2145 ft | 177 kts | 102° |
| 2026-05-08 06:39 | 50.04142 | 8.62939 | 2414 ft | 204 kts | 148° |
| 2026-05-08 06:40 | 50.02698 | 8.63481 | 2712 ft | 226 kts | 175° |
| 2026-05-08 06:40 | 50.01102 | 8.63490 | 3388 ft | 232 kts | 185° |
| 2026-05-08 06:40 | 49.99598 | 8.62731 | 4166 ft | 234 kts | 214° |
| 2026-05-08 06:40 | 49.98439 | 8.60966 | 4994 ft | 235 kts | 234° |
| 2026-05-08 06:41 | 49.97330 | 8.59095 | 5760 ft | 241 kts | 214° |
| 2026-05-08 06:41 | 49.95713 | 8.58029 | 6134 ft | 264 kts | 199° |
| 2026-05-08 06:41 | 49.93940 | 8.57115 | 6827 ft | 271 kts | 200° |
| 2026-05-08 06:41 | 49.92146 | 8.56159 | 7565 ft | 274 kts | 200° |
| 2026-05-08 06:42 | 49.90339 | 8.55168 | 8329 ft | 277 kts | 201° |
| 2026-05-08 06:42 | 49.88512 | 8.54161 | 9087 ft | 280 kts | 198° |
| 2026-05-08 06:42 | 49.86579 | 8.53598 | 9812 ft | 286 kts | 184° |
| 2026-05-08 06:42 | 49.84574 | 8.53684 | 10406 ft | 295 kts | 178° |
| 2026-05-08 06:43 | 49.82441 | 8.53847 | 10546 ft | 318 kts | 178° |
| 2026-05-08 06:43 | 49.80171 | 8.54012 | 10862 ft | 332 kts | 179° |
| 2026-05-08 06:43 | 49.77845 | 8.54106 | 11443 ft | 336 kts | 184° |
| 2026-05-08 06:43 | 49.75499 | 8.53815 | 12077 ft | 340 kts | 186° |
| 2026-05-08 06:44 | 49.73136 | 8.53501 | 12726 ft | 343 kts | 186° |
| 2026-05-08 06:44 | 49.70751 | 8.53184 | 13382 ft | 346 kts | 186° |
| 2026-05-08 06:44 | 49.68341 | 8.52862 | 14017 ft | 349 kts | 186° |
| 2026-05-08 06:44 | 49.65910 | 8.52536 | 14595 ft | 352 kts | 186° |
| 2026-05-08 06:45 | 49.63458 | 8.52207 | 15154 ft | 355 kts | 186° |
| 2026-05-08 06:45 | 49.60988 | 8.51879 | 15727 ft | 359 kts | 186° |
| 2026-05-08 06:45 | 49.58490 | 8.51549 | 16316 ft | 361 kts | 187° |
| 2026-05-08 06:45 | 49.55977 | 8.51215 | 16900 ft | 364 kts | 187° |
| 2026-05-08 06:46 | 49.53439 | 8.50879 | 17471 ft | 367 kts | 187° |
| 2026-05-08 06:46 | 49.50888 | 8.50542 | 18033 ft | 370 kts | 187° |
| 2026-05-08 06:46 | 49.48312 | 8.50204 | 18568 ft | 373 kts | 187° |
| 2026-05-08 06:46 | 49.45721 | 8.49865 | 19052 ft | 375 kts | 187° |
| 2026-05-08 06:47 | 49.43108 | 8.49523 | 19537 ft | 378 kts | 187° |
| 2026-05-08 06:47 | 49.40478 | 8.49180 | 20014 ft | 381 kts | 187° |
| 2026-05-08 06:47 | 49.37829 | 8.48838 | 20492 ft | 383 kts | 187° |
| 2026-05-08 06:47 | 49.35200 | 8.48497 | 20954 ft | 386 kts | 187° |
| 2026-05-08 06:48 | 49.32515 | 8.48143 | 21414 ft | 388 kts | 187° |
| 2026-05-08 06:48 | 49.29818 | 8.47787 | 21869 ft | 391 kts | 187° |
| 2026-05-08 06:48 | 49.27096 | 8.47433 | 22326 ft | 393 kts | 187° |
| 2026-05-08 06:48 | 49.24361 | 8.47079 | 22776 ft | 396 kts | 187° |
| 2026-05-08 06:49 | 49.21611 | 8.46720 | 23190 ft | 398 kts | 187° |
| 2026-05-08 06:49 | 49.18841 | 8.46360 | 23632 ft | 400 kts | 187° |
| 2026-05-08 06:49 | 49.16054 | 8.45998 | 24015 ft | 403 kts | 187° |
| 2026-05-08 06:49 | 49.13257 | 8.45638 | 24401 ft | 404 kts | 187° |
| 2026-05-08 06:50 | 49.10449 | 8.45278 | 24781 ft | 406 kts | 187° |
| 2026-05-08 06:50 | 49.07627 | 8.44918 | 25172 ft | 408 kts | 188° |
| 2026-05-08 06:50 | 49.04826 | 8.44239 | 25535 ft | 407 kts | 195° |
| 2026-05-08 06:50 | 49.02066 | 8.43271 | 25904 ft | 409 kts | 195° |
| 2026-05-08 06:51 | 48.99288 | 8.42294 | 26273 ft | 410 kts | 195° |
| 2026-05-08 06:51 | 48.96498 | 8.41314 | 26673 ft | 411 kts | 195° |
| 2026-05-08 06:51 | 48.93705 | 8.40339 | 27046 ft | 413 kts | 195° |
| 2026-05-08 06:51 | 48.90898 | 8.39363 | 27414 ft | 415 kts | 195° |
| 2026-05-08 06:52 | 48.88080 | 8.38383 | 27778 ft | 417 kts | 195° |
| 2026-05-08 06:52 | 48.85246 | 8.37401 | 28135 ft | 418 kts | 195° |
| 2026-05-08 06:52 | 48.82403 | 8.36417 | 28493 ft | 420 kts | 195° |
| 2026-05-08 06:52 | 48.79544 | 8.35429 | 28844 ft | 422 kts | 195° |
| 2026-05-08 06:53 | 48.76675 | 8.34428 | 29192 ft | 424 kts | 195° |
| 2026-05-08 06:53 | 48.73835 | 8.33407 | 29554 ft | 425 kts | 196° |
| 2026-05-08 06:53 | 48.70956 | 8.32346 | 29885 ft | 427 kts | 196° |
| 2026-05-08 06:53 | 48.68066 | 8.31273 | 30198 ft | 429 kts | 196° |
| 2026-05-08 06:54 | 48.65163 | 8.30198 | 30464 ft | 430 kts | 196° |
| 2026-05-08 06:54 | 48.62246 | 8.29125 | 30719 ft | 432 kts | 196° |
| 2026-05-08 06:54 | 48.59317 | 8.28057 | 30966 ft | 434 kts | 195° |
| 2026-05-08 06:54 | 48.56382 | 8.26993 | 31204 ft | 435 kts | 195° |
| 2026-05-08 06:55 | 48.53433 | 8.25924 | 31431 ft | 436 kts | 195° |
| 2026-05-08 06:55 | 48.50447 | 8.25087 | 31734 ft | 438 kts | 188° |
| 2026-05-08 06:55 | 48.47400 | 8.24943 | 32047 ft | 439 kts | 179° |
| 2026-05-08 06:55 | 48.44362 | 8.25498 | 32355 ft | 441 kts | 173° |
| 2026-05-08 06:56 | 48.41338 | 8.26259 | 32671 ft | 440 kts | 173° |
| 2026-05-08 06:56 | 48.38319 | 8.27004 | 32989 ft | 439 kts | 173° |
| 2026-05-08 06:56 | 48.32389 | 8.28433 | 33078 ft | 422 kts | 173° |
| 2026-05-08 06:57 | 48.26631 | 8.29810 | 33071 ft | 418 kts | 173° |
| 2026-05-08 06:57 | 48.20896 | 8.31177 | 33081 ft | 417 kts | 173° |
| 2026-05-08 06:58 | 48.15145 | 8.32155 | 33071 ft | 414 kts | 181° |
| 2026-05-08 06:58 | 48.09375 | 8.32230 | 33081 ft | 415 kts | 181° |
| 2026-05-08 06:59 | 48.03602 | 8.32307 | 33078 ft | 415 kts | 181° |
| 2026-05-08 06:59 | 47.97827 | 8.32388 | 33077 ft | 415 kts | 181° |
| 2026-05-08 07:00 | 47.92055 | 8.32474 | 33069 ft | 415 kts | 181° |
| 2026-05-08 07:00 | 47.86282 | 8.32562 | 33077 ft | 414 kts | 181° |
| 2026-05-08 07:01 | 47.80523 | 8.32643 | 33078 ft | 414 kts | 181° |
| 2026-05-08 07:01 | 47.74762 | 8.32723 | 33076 ft | 414 kts | 181° |
| 2026-05-08 07:02 | 47.69042 | 8.32807 | 33073 ft | 414 kts | 181° |
| 2026-05-08 07:02 | 47.63292 | 8.32892 | 33078 ft | 413 kts | 181° |
| 2026-05-08 07:03 | 47.57542 | 8.32971 | 33078 ft | 413 kts | 181° |
| 2026-05-08 07:03 | 47.51757 | 8.33040 | 33077 ft | 413 kts | 181° |
| 2026-05-08 07:04 | 47.46056 | 8.33108 | 33080 ft | 412 kts | 182° |
| 2026-05-08 07:04 | 47.40326 | 8.33192 | 33079 ft | 412 kts | 182° |
| 2026-05-08 07:05 | 47.34598 | 8.33275 | 33081 ft | 411 kts | 183° |
| 2026-05-08 07:05 | 47.28894 | 8.33404 | 33078 ft | 411 kts | 181° |
| 2026-05-08 07:06 | 47.23195 | 8.34078 | 33085 ft | 411 kts | 178° |
| 2026-05-08 07:06 | 47.17512 | 8.35012 | 33088 ft | 410 kts | 178° |
| 2026-05-08 07:07 | 47.11843 | 8.35879 | 33084 ft | 409 kts | 178° |
| 2026-05-08 07:07 | 47.06173 | 8.36657 | 33085 ft | 408 kts | 179° |
| 2026-05-08 07:08 | 47.00521 | 8.37401 | 33095 ft | 407 kts | 179° |
| 2026-05-08 07:08 | 46.94919 | 8.38159 | 33030 ft | 406 kts | 179° |
| 2026-05-08 07:09 | 46.92137 | 8.38543 | 32759 ft | 398 kts | 179° |
| 2026-05-08 07:09 | 46.89399 | 8.38918 | 32489 ft | 394 kts | 180° |
| 2026-05-08 07:09 | 46.86677 | 8.39289 | 32216 ft | 391 kts | 180° |
| 2026-05-08 07:09 | 46.83981 | 8.39653 | 31954 ft | 388 kts | 180° |
| 2026-05-08 07:10 | 46.81308 | 8.40016 | 31660 ft | 382 kts | 180° |
| 2026-05-08 07:10 | 46.78680 | 8.40371 | 31237 ft | 377 kts | 180° |
| 2026-05-08 07:10 | 46.76082 | 8.40718 | 30823 ft | 373 kts | 181° |
| 2026-05-08 07:10 | 46.73514 | 8.41061 | 30406 ft | 369 kts | 181° |
| 2026-05-08 07:11 | 46.70968 | 8.41404 | 30000 ft | 365 kts | 181° |
| 2026-05-08 07:11 | 46.68458 | 8.41748 | 29590 ft | 360 kts | 181° |
| 2026-05-08 07:11 | 46.65985 | 8.42086 | 29208 ft | 354 kts | 180° |
| 2026-05-08 07:11 | 46.63563 | 8.42415 | 28846 ft | 345 kts | 180° |
| 2026-05-08 07:12 | 46.61198 | 8.42735 | 28481 ft | 338 kts | 180° |
| 2026-05-08 07:12 | 46.58871 | 8.43044 | 28140 ft | 335 kts | 181° |
| 2026-05-08 07:12 | 46.56545 | 8.43346 | 27793 ft | 336 kts | 180° |
| 2026-05-08 07:12 | 46.54221 | 8.43649 | 27448 ft | 335 kts | 180° |
| 2026-05-08 07:13 | 46.51903 | 8.43954 | 27107 ft | 334 kts | 180° |
| 2026-05-08 07:13 | 46.49593 | 8.44258 | 26773 ft | 333 kts | 180° |
| 2026-05-08 07:13 | 46.47286 | 8.44561 | 26435 ft | 332 kts | 180° |
| 2026-05-08 07:13 | 46.44991 | 8.44864 | 26090 ft | 331 kts | 179° |
| 2026-05-08 07:14 | 46.42696 | 8.45172 | 25741 ft | 330 kts | 179° |
| 2026-05-08 07:14 | 46.40417 | 8.45480 | 25394 ft | 329 kts | 179° |
| 2026-05-08 07:14 | 46.38139 | 8.45787 | 25034 ft | 329 kts | 179° |
| 2026-05-08 07:14 | 46.35862 | 8.46091 | 24674 ft | 328 kts | 179° |
| 2026-05-08 07:15 | 46.33596 | 8.46391 | 24315 ft | 327 kts | 179° |
| 2026-05-08 07:15 | 46.32099 | 8.46589 | 24068 ft | 326 kts | 179° |
| 2026-05-08 07:15 | 46.29846 | 8.46886 | 23706 ft | 325 kts | 178° |
| 2026-05-08 07:15 | 46.27594 | 8.47185 | 23289 ft | 324 kts | 178° |
| 2026-05-08 07:16 | 46.25354 | 8.47490 | 22879 ft | 323 kts | 178° |
| 2026-05-08 07:16 | 46.23122 | 8.47808 | 22494 ft | 322 kts | 177° |
| 2026-05-08 07:16 | 46.20896 | 8.48131 | 22106 ft | 321 kts | 177° |
| 2026-05-08 07:16 | 46.18684 | 8.48451 | 21719 ft | 318 kts | 177° |
| 2026-05-08 07:17 | 46.16486 | 8.48767 | 21333 ft | 317 kts | 177° |
| 2026-05-08 07:17 | 46.14303 | 8.49081 | 20950 ft | 315 kts | 177° |
| 2026-05-08 07:17 | 46.12130 | 8.49398 | 20559 ft | 313 kts | 174° |
| 2026-05-08 07:17 | 46.10004 | 8.50082 | 20184 ft | 314 kts | 163° |
| 2026-05-08 07:18 | 46.07962 | 8.51182 | 19806 ft | 312 kts | 161° |
| 2026-05-08 07:18 | 46.05936 | 8.52285 | 19422 ft | 311 kts | 161° |
| 2026-05-08 07:18 | 46.03918 | 8.53373 | 19047 ft | 309 kts | 161° |
| 2026-05-08 07:18 | 46.01906 | 8.54452 | 18675 ft | 307 kts | 161° |
| 2026-05-08 07:19 | 45.99907 | 8.55525 | 18287 ft | 306 kts | 161° |
| 2026-05-08 07:19 | 45.97918 | 8.56593 | 17887 ft | 304 kts | 161° |
| 2026-05-08 07:19 | 45.95941 | 8.57652 | 17515 ft | 302 kts | 161° |
| 2026-05-08 07:19 | 45.93981 | 8.58701 | 17130 ft | 300 kts | 161° |
| 2026-05-08 07:20 | 45.92037 | 8.59741 | 16787 ft | 296 kts | 161° |
| 2026-05-08 07:20 | 45.90140 | 8.60862 | 16426 ft | 294 kts | 153° |
| 2026-05-08 07:20 | 45.88461 | 8.62448 | 16071 ft | 293 kts | 142° |
| 2026-05-08 07:20 | 45.86894 | 8.64296 | 15724 ft | 291 kts | 142° |
| 2026-05-08 07:21 | 45.85329 | 8.66123 | 15373 ft | 289 kts | 142° |
| 2026-05-08 07:21 | 45.83767 | 8.67930 | 15014 ft | 288 kts | 142° |
| 2026-05-08 07:21 | 45.82216 | 8.69721 | 14671 ft | 286 kts | 142° |
| 2026-05-08 07:21 | 45.80666 | 8.71508 | 14326 ft | 285 kts | 142° |
| 2026-05-08 07:22 | 45.79124 | 8.73285 | 13976 ft | 284 kts | 142° |
| 2026-05-08 07:22 | 45.77585 | 8.75061 | 13606 ft | 283 kts | 142° |
| 2026-05-08 07:22 | 45.76006 | 8.76718 | 13266 ft | 280 kts | 150° |
| 2026-05-08 07:22 | 45.74295 | 8.78040 | 12930 ft | 279 kts | 153° |
| 2026-05-08 07:23 | 45.72589 | 8.79347 | 12598 ft | 277 kts | 152° |
| 2026-05-08 07:23 | 45.70895 | 8.80650 | 12267 ft | 276 kts | 152° |
| 2026-05-08 07:23 | 45.69212 | 8.81948 | 11942 ft | 274 kts | 152° |
| 2026-05-08 07:23 | 45.67536 | 8.83239 | 11609 ft | 273 kts | 152° |
| 2026-05-08 07:24 | 45.65871 | 8.84522 | 11332 ft | 269 kts | 152° |
| 2026-05-08 07:24 | 45.64221 | 8.85792 | 11246 ft | 270 kts | 152° |
| 2026-05-08 07:24 | 45.62571 | 8.87053 | 10913 ft | 269 kts | 154° |
| 2026-05-08 07:24 | 45.60819 | 8.87944 | 10584 ft | 266 kts | 169° |
| 2026-05-08 07:25 | 45.59003 | 8.88432 | 10244 ft | 265 kts | 169° |
| 2026-05-08 07:25 | 45.57193 | 8.88922 | 9910 ft | 264 kts | 169° |
| 2026-05-08 07:25 | 45.53617 | 8.89901 | 9359 ft | 255 kts | 169° |
| 2026-05-08 07:26 | 45.51892 | 8.90373 | 9115 ft | 250 kts | 169° |
| 2026-05-08 07:26 | 45.50192 | 8.90835 | 8821 ft | 248 kts | 169° |
| 2026-05-08 07:26 | 45.48501 | 8.91294 | 8484 ft | 247 kts | 168° |
| 2026-05-08 07:26 | 45.46820 | 8.91749 | 8156 ft | 245 kts | 168° |
| 2026-05-08 07:27 | 45.45169 | 8.92198 | 7835 ft | 244 kts | 168° |
| 2026-05-08 07:27 | 45.43505 | 8.92651 | 7509 ft | 243 kts | 168° |
| 2026-05-08 07:27 | 45.41845 | 8.93103 | 7181 ft | 242 kts | 167° |
| 2026-05-08 07:27 | 45.40195 | 8.93552 | 6863 ft | 241 kts | 167° |
| 2026-05-08 07:28 | 45.38528 | 8.93673 | 6550 ft | 242 kts | 189° |
| 2026-05-08 07:28 | 45.37003 | 8.92760 | 6313 ft | 239 kts | 216° |
| 2026-05-08 07:28 | 45.35931 | 8.90986 | 5982 ft | 239 kts | 244° |
| 2026-05-08 07:28 | 45.35542 | 8.88715 | 5639 ft | 238 kts | 272° |
| 2026-05-08 07:29 | 45.35835 | 8.86409 | 5265 ft | 238 kts | 285° |
| 2026-05-08 07:29 | 45.36240 | 8.84128 | 4911 ft | 238 kts | 284° |
| 2026-05-08 07:29 | 45.36737 | 8.81902 | 4576 ft | 236 kts | 301° |
| 2026-05-08 07:29 | 45.37828 | 8.80240 | 4318 ft | 230 kts | 331° |
| 2026-05-08 07:30 | 45.39330 | 8.79580 | 4166 ft | 227 kts | 1° |
| 2026-05-08 07:30 | 45.40908 | 8.79439 | 4002 ft | 229 kts | 353° |
| 2026-05-08 07:30 | 45.42471 | 8.79025 | 3881 ft | 225 kts | 351° |
| 2026-05-08 07:30 | 45.43965 | 8.78598 | 3772 ft | 216 kts | 351° |
| 2026-05-08 07:31 | 45.45435 | 8.78191 | 3648 ft | 215 kts | 352° |
| 2026-05-08 07:31 | 45.46900 | 8.77789 | 3563 ft | 214 kts | 352° |
| 2026-05-08 07:31 | 45.48362 | 8.77388 | 3349 ft | 214 kts | 352° |
| 2026-05-08 07:31 | 45.49821 | 8.76987 | 3079 ft | 213 kts | 352° |
| 2026-05-08 07:32 | 45.51277 | 8.76587 | 2797 ft | 212 kts | 352° |
| 2026-05-08 07:32 | 45.52693 | 8.76196 | 2523 ft | 200 kts | 352° |
| 2026-05-08 07:32 | 45.54007 | 8.75833 | 2261 ft | 185 kts | 352° |
| 2026-05-08 07:32 | 45.55209 | 8.75502 | 2025 ft | 168 kts | 352° |
| 2026-05-08 07:33 | 45.56313 | 8.75198 | 1801 ft | 155 kts | 352° |
| 2026-05-08 07:33 | 45.57349 | 8.74913 | 1593 ft | 148 kts | 351° |
| 2026-05-08 07:33 | 45.58347 | 8.74639 | 1388 ft | 144 kts | 350° |
| 2026-05-08 07:33 | 45.59321 | 8.74371 | 1218 ft | 142 kts | 348° |
| 2026-05-08 07:34 | 45.60287 | 8.74106 | 1034 ft | 140 kts | 348° |
| 2026-05-08 07:34 | 45.61234 | 8.73840 | 842 ft | 138 kts | 347° |
| 2026-05-08 07:34 | 45.62163 | 8.73582 | 745 ft | 128 kts | 348° |
| 2026-05-08 07:34 | 45.62903 | 8.73381 | 739 ft | 85 kts | 349° |
| 2026-05-08 07:35 | 45.63316 | 8.73268 | 738 ft | 41 kts | 349° |
| 2026-05-08 07:35 | 45.63558 | 8.73199 | 741 ft | 32 kts | 345° |
| 2026-05-08 07:35 | 45.63727 | 8.73063 | 742 ft | 25 kts | 316° |
| 2026-05-08 07:35 | 45.63833 | 8.72858 | 740 ft | 26 kts | 300° |
| 2026-05-08 07:36 | 45.63922 | 8.72673 | 741 ft | 18 kts | 301° |
| 2026-05-08 07:36 | 45.63951 | 8.72533 | 741 ft | 15 kts | 262° |
| 2026-05-08 07:36 | 45.63933 | 8.72375 | 741 ft | 17 kts | 258° |
| 2026-05-08 07:36 | 45.63913 | 8.72203 | 741 ft | 18 kts | 264° |
| 2026-05-08 07:37 | 45.63905 | 8.72013 | 740 ft | 19 kts | 268° |
| 2026-05-08 07:37 | 45.63888 | 8.71880 | 740 ft | 12 kts | 241° |
| 2026-05-08 07:37 | 45.63813 | 8.71824 | 741 ft | 14 kts | 182° |
| 2026-05-08 07:37 | 45.63714 | 8.71849 | 741 ft | 15 kts | 168° |
| 2026-05-08 07:38 | 45.63604 | 8.71879 | 741 ft | 17 kts | 169° |
| 2026-05-08 07:38 | 45.63483 | 8.71912 | 741 ft | 19 kts | 169° |
| 2026-05-08 07:38 | 45.63351 | 8.71948 | 741 ft | 20 kts | 169° |
| 2026-05-08 07:38 | 45.63208 | 8.71988 | 741 ft | 22 kts | 169° |
| 2026-05-08 07:39 | 45.63076 | 8.72024 | 741 ft | 10 kts | 169° |
| 2026-05-08 07:39 | 45.63024 | 8.72039 | 741 ft | 8 kts | 169° |
| 2026-05-08 07:39 | 45.62962 | 8.72056 | 741 ft | 10 kts | 169° |
| 2026-05-08 07:39 | 45.62886 | 8.72077 | 741 ft | 12 kts | 169° |
| 2026-05-08 07:40 | 45.62799 | 8.72102 | 741 ft | 14 kts | 169° |
| 2026-05-08 07:40 | 45.62721 | 8.72121 | 741 ft | 10 kts | 179° |
| 2026-05-08 07:40 | 45.62679 | 8.72050 | 740 ft | 11 kts | 256° |
| 2026-05-08 07:40 | 45.62664 | 8.71937 | 741 ft | 13 kts | 259° |
| 2026-05-08 07:41 | 45.62646 | 8.71802 | 741 ft | 15 kts | 259° |
| 2026-05-08 07:41 | 45.62628 | 8.71666 | 741 ft | 8 kts | 259° |
| 2026-05-08 07:41 | 45.62619 | 8.71607 | 741 ft | 5 kts | 249° |
| 2026-05-08 07:41 | 45.62582 | 8.71595 | 741 ft | 7 kts | 175° |
| 2026-05-08 07:42 | 45.62543 | 8.71604 | 741 ft | 4 kts | 169° |
| 2026-05-08 07:42 | 45.62541 | 8.71605 | 741 ft | 0 kts | 169° |